createdAt,value
2019-05-22T00:01:00.984Z,3.10
2019-05-22T00:05:48.282Z,2.93
2019-05-22T00:10:35.299Z,3.07
2019-05-22T00:15:24.450Z,2.70
2019-05-22T00:20:12.067Z,2.70
2019-05-22T00:25:24.295Z,2.80
2019-05-22T00:30:12.814Z,2.63
2019-05-22T00:34:58.648Z,2.40
2019-05-22T00:39:46.078Z,2.73
2019-05-22T00:44:33.362Z,2.07
2019-05-22T00:49:20.675Z,2.17
2019-05-22T00:54:29.898Z,1.60
2019-05-22T00:59:25.100Z,2.43
2019-05-22T01:04:11.805Z,3.00
2019-05-22T01:08:57.648Z,2.83
2019-05-22T01:13:44.333Z,2.83
2019-05-22T01:18:30.246Z,2.70
2019-05-22T01:23:20.533Z,3.23
2019-05-22T01:28:07.364Z,2.87
2019-05-22T01:32:54.532Z,3.10
2019-05-22T01:37:42.787Z,2.77
2019-05-22T01:42:36.439Z,2.30
2019-05-22T01:47:54.349Z,2.60
2019-05-22T01:52:40.885Z,2.07
2019-05-22T01:57:29.283Z,2.20
2019-05-22T02:02:16.576Z,3.03
2019-05-22T02:07:04.004Z,2.87
2019-05-22T02:11:54.411Z,2.40
2019-05-22T02:16:56.061Z,2.50
2019-05-22T02:21:32.684Z,2.10
2019-05-22T02:26:20.150Z,3.00
2019-05-22T02:31:07.811Z,5.00
2019-05-22T02:35:55.684Z,6.13
2019-05-22T02:40:44.277Z,6.23
2019-05-22T02:45:30.631Z,5.53
2019-05-22T02:50:18.448Z,5.47
2019-05-22T02:55:06.274Z,5.50
2019-05-22T02:59:52.426Z,3.33
2019-05-22T03:05:13.318Z,2.30
2019-05-22T03:10:01.251Z,1.93
2019-05-22T03:14:47.639Z,2.40
2019-05-22T03:19:41.318Z,1.70
2019-05-22T03:24:28.065Z,2.20
2019-05-22T03:29:15.426Z,2.00
2019-05-22T03:34:01.687Z,1.73
2019-05-22T03:38:48.847Z,2.10
2019-05-22T03:43:36.280Z,2.30
2019-05-22T03:48:24.175Z,2.60
2019-05-22T03:53:18.196Z,2.83
2019-05-22T03:58:04.839Z,3.60
2019-05-22T04:02:53.753Z,3.20
2019-05-22T04:07:41.233Z,2.90
2019-05-22T04:12:27.549Z,2.40
2019-05-22T04:17:14.966Z,2.50
2019-05-22T04:22:01.034Z,2.10
2019-05-22T04:26:47.651Z,2.60
2019-05-22T04:31:51.827Z,2.13
2019-05-22T04:36:38.292Z,2.30
2019-05-22T04:41:24.435Z,2.37
2019-05-22T04:46:11.839Z,2.83
2019-05-22T04:51:01.130Z,2.50
2019-05-22T04:55:46.992Z,2.77
2019-05-22T05:00:34.236Z,3.30
2019-05-22T05:05:22.022Z,5.73
2019-05-22T05:10:08.261Z,6.73
2019-05-22T05:14:54.279Z,6.80
2019-05-22T05:19:40.538Z,4.20
2019-05-22T05:24:26.389Z,4.73
2019-05-22T05:29:27.763Z,5.20
2019-05-22T05:34:27.576Z,5.00
2019-05-22T05:40:03.401Z,4.43
2019-05-22T05:44:49.428Z,3.67
2019-05-22T05:49:35.285Z,3.53
2019-05-22T05:54:21.173Z,3.97
2019-05-22T05:59:09.480Z,4.47
2019-05-22T06:03:58.347Z,3.93
2019-05-22T06:08:45.913Z,4.83
2019-05-22T06:13:32.268Z,4.37
2019-05-22T06:18:36.507Z,3.90
2019-05-22T06:23:52.539Z,3.30
2019-05-22T06:28:42.462Z,3.83
2019-05-22T06:33:34.418Z,3.50
2019-05-22T06:38:50.029Z,5.73
2019-05-22T06:44:43.828Z,5.80
2019-05-22T06:49:44.722Z,8.90
2019-05-22T06:54:31.103Z,9.60
2019-05-22T06:59:17.547Z,9.20
2019-05-22T07:04:05.056Z,6.20
2019-05-22T07:08:51.536Z,3.93
2019-05-22T07:13:37.691Z,3.50
2019-05-22T07:18:26.651Z,4.00
2019-05-22T07:23:20.788Z,4.67
2019-05-22T07:28:08.125Z,4.60
2019-05-22T07:32:54.197Z,4.30
2019-05-22T07:37:42.821Z,3.80
2019-05-22T07:42:28.694Z,3.67
2019-05-22T07:47:16.148Z,3.27
2019-05-22T07:52:02.684Z,3.83
2019-05-22T07:56:49.289Z,3.60
2019-05-22T08:01:36.049Z,2.77
2019-05-22T08:06:23.360Z,2.87
2019-05-22T08:11:09.654Z,2.53
2019-05-22T08:15:55.575Z,2.53
2019-05-22T08:20:41.687Z,2.60
2019-05-22T08:25:29.080Z,2.20
2019-05-22T08:30:16.000Z,2.10
2019-05-22T08:35:02.327Z,1.93
2019-05-22T08:39:48.851Z,2.07
2019-05-22T08:44:35.844Z,1.83
2019-05-22T08:49:21.795Z,2.20
2019-05-22T08:54:08.130Z,2.47
2019-05-22T08:58:54.217Z,2.00
2019-05-22T09:03:41.799Z,1.53
2019-05-22T09:08:27.786Z,2.43
2019-05-22T09:13:14.140Z,2.40
2019-05-22T09:18:00.153Z,3.20
2019-05-22T09:22:46.818Z,3.20
2019-05-22T09:27:34.400Z,2.20
2019-05-22T09:32:20.428Z,2.80
2019-05-22T09:37:25.197Z,2.87
2019-05-22T09:42:11.012Z,2.10
2019-05-22T09:46:57.196Z,1.60
2019-05-22T09:51:43.177Z,1.97
2019-05-22T09:56:30.513Z,2.20
2019-05-22T10:01:16.912Z,1.43
2019-05-22T10:06:02.776Z,1.67
2019-05-22T10:10:49.180Z,1.67
2019-05-22T10:15:36.278Z,2.27
2019-05-22T10:20:24.863Z,2.63
2019-05-22T10:25:16.286Z,3.10
2019-05-22T10:29:59.344Z,2.60
2019-05-22T10:34:46.382Z,2.47
2019-05-22T10:39:33.039Z,2.83
2019-05-22T10:44:20.154Z,2.63
2019-05-22T10:49:06.337Z,3.30
2019-05-22T10:53:52.690Z,4.53
2019-05-22T10:58:39.224Z,4.80
2019-05-22T11:03:25.649Z,4.80
2019-05-22T11:08:11.835Z,4.80
2019-05-22T11:12:59.237Z,5.40
2019-05-22T11:17:46.158Z,4.20
2019-05-22T11:22:34.952Z,4.47
2019-05-22T11:27:21.047Z,5.27
2019-05-22T11:32:09.100Z,5.60
2019-05-22T11:36:56.185Z,6.70
2019-05-22T11:41:43.082Z,6.13
2019-05-22T11:46:31.103Z,6.47
2019-05-22T11:51:36.030Z,6.47
2019-05-22T11:56:22.076Z,6.30
2019-05-22T12:01:26.845Z,5.00
2019-05-22T12:06:15.619Z,4.80
2019-05-22T12:11:02.472Z,4.50
2019-05-22T12:15:49.542Z,4.40
2019-05-22T12:25:47.938Z,5.13
2019-05-22T12:30:34.479Z,4.97
2019-05-22T12:35:22.846Z,5.63
2019-05-22T12:40:11.689Z,5.37
2019-05-22T12:44:58.395Z,4.37
2019-05-22T12:49:44.698Z,4.17
2019-05-22T12:54:46.040Z,4.47
2019-05-22T12:59:23.033Z,4.40
2019-05-22T13:04:11.034Z,4.80
2019-05-22T13:08:58.153Z,4.60
2019-05-22T13:13:44.220Z,4.27
2019-05-22T13:18:32.671Z,4.83
2019-05-22T13:23:21.326Z,4.42
2019-05-22T13:28:10.252Z,4.10
2019-05-22T13:32:57.132Z,4.60
2019-05-22T13:37:43.841Z,4.10
2019-05-22T13:42:30.739Z,3.40
2019-05-22T13:47:17.316Z,3.30
2019-05-22T13:52:03.712Z,3.70
2019-05-22T13:56:50.165Z,3.10
2019-05-22T14:01:36.779Z,3.45
2019-05-22T14:06:23.555Z,3.17
2019-05-22T14:11:09.861Z,2.55
2019-05-22T14:15:57.266Z,2.70
2019-05-22T14:20:44.158Z,2.80
2019-05-22T14:25:32.745Z,2.20
2019-05-22T14:30:22.285Z,2.30
2019-05-22T14:35:09.192Z,3.08
2019-05-22T14:39:55.857Z,3.15
2019-05-22T14:44:42.171Z,2.00
2019-05-22T14:49:28.362Z,2.90
2019-05-22T14:54:14.986Z,2.60
2019-05-22T14:59:05.517Z,2.45
2019-05-22T15:03:52.518Z,2.47
2019-05-22T15:08:38.763Z,2.90
2019-05-22T15:13:24.835Z,2.40
2019-05-22T15:18:11.839Z,3.13
2019-05-22T15:22:58.294Z,2.90
2019-05-22T15:27:45.160Z,3.40
2019-05-22T15:32:32.352Z,2.53
2019-05-22T15:37:21.278Z,3.40
2019-05-22T15:42:09.766Z,3.00
2019-05-22T15:46:56.194Z,2.33
2019-05-22T15:51:43.113Z,2.60
2019-05-22T15:56:31.947Z,2.40
2019-05-22T16:01:21.946Z,2.17
2019-05-22T16:06:10.109Z,2.20
2019-05-22T16:11:00.411Z,2.40
2019-05-22T16:15:50.183Z,2.20
2019-05-22T16:20:38.717Z,2.53
2019-05-22T16:25:26.714Z,2.07
2019-05-22T16:30:14.574Z,2.50
2019-05-22T16:35:00.879Z,2.67
2019-05-22T16:39:50.286Z,2.97
2019-05-22T16:44:35.841Z,3.20
2019-05-22T16:49:22.379Z,3.10
2019-05-22T16:54:10.124Z,2.70
2019-05-22T16:58:56.644Z,2.70
2019-05-22T17:03:42.654Z,2.33
2019-05-22T17:08:29.742Z,2.57
2019-05-22T17:13:16.855Z,2.47
2019-05-22T17:18:03.206Z,2.55
2019-05-22T17:22:49.390Z,2.50
2019-05-22T17:27:36.107Z,2.42
2019-05-22T17:32:23.999Z,2.40
2019-05-22T17:37:14.526Z,2.12
2019-05-22T17:42:02.903Z,2.30
2019-05-22T17:46:50.131Z,3.10
2019-05-22T17:51:36.409Z,2.70
2019-05-22T17:56:22.469Z,3.17
2019-05-22T18:01:10.073Z,3.27
2019-05-22T18:05:56.076Z,2.73
2019-05-22T18:11:01.442Z,3.07
2019-05-22T18:15:47.889Z,3.10
2019-05-22T18:20:42.466Z,3.30
2019-05-22T18:25:23.378Z,3.43
2019-05-22T18:30:09.533Z,3.53
2019-05-22T18:34:55.538Z,3.23
2019-05-22T18:39:42.019Z,3.20
2019-05-22T18:44:27.915Z,4.53
2019-05-22T18:49:15.143Z,4.47
2019-05-22T18:54:01.372Z,4.77
2019-05-22T18:58:48.260Z,4.03
2019-05-22T19:03:34.785Z,4.20
2019-05-22T19:08:21.206Z,4.43
2019-05-22T19:13:07.278Z,4.57
2019-05-22T19:17:53.496Z,4.77
2019-05-22T19:22:40.000Z,4.27
2019-05-22T19:27:26.161Z,3.47
2019-05-22T19:32:12.303Z,3.83
2019-05-22T19:36:58.285Z,4.40
2019-05-22T19:41:59.805Z,5.27
2019-05-22T19:46:33.447Z,5.60
2019-05-22T19:51:20.807Z,5.80
2019-05-22T19:56:08.245Z,5.13
2019-05-22T20:00:54.949Z,5.40
2019-05-22T20:05:41.189Z,5.30
2019-05-22T20:10:30.129Z,6.43
2019-05-22T20:15:17.283Z,6.13
2019-05-22T20:20:03.899Z,6.33
2019-05-22T20:24:50.561Z,5.73
2019-05-22T20:29:36.762Z,5.57
2019-05-22T20:34:23.098Z,5.43
2019-05-22T20:39:11.951Z,5.00
2019-05-22T20:43:59.799Z,5.47
2019-05-22T20:48:45.837Z,5.47
2019-05-22T20:53:52.314Z,4.30
2019-05-22T20:58:23.293Z,4.50
2019-05-22T21:03:11.905Z,4.30
2019-05-22T21:08:03.576Z,4.27
2019-05-22T21:12:51.076Z,4.83
2019-05-22T21:17:39.729Z,3.40
2019-05-22T21:22:26.030Z,3.67
2019-05-22T21:27:13.193Z,4.10
2019-05-22T21:31:59.887Z,4.27
2019-05-22T21:36:49.768Z,4.80
2019-05-22T21:41:35.606Z,5.57
2019-05-22T21:46:21.882Z,6.20
2019-05-22T21:51:09.308Z,5.27
2019-05-22T21:56:04.367Z,5.80
2019-05-22T22:01:04.017Z,6.60
2019-05-22T22:05:50.487Z,6.20
2019-05-22T22:10:36.676Z,5.97
2019-05-22T22:15:23.102Z,6.87
2019-05-22T22:20:09.646Z,7.30
2019-05-22T22:24:56.412Z,7.03
2019-05-22T22:29:43.481Z,7.33
2019-05-22T22:34:47.198Z,6.40
2019-05-22T22:39:34.858Z,5.70
2019-05-22T22:44:21.766Z,4.83
2019-05-22T22:49:12.031Z,6.33
2019-05-22T22:53:58.882Z,4.90
2019-05-22T22:58:45.554Z,4.70
2019-05-22T23:03:33.676Z,5.10
2019-05-22T23:08:24.898Z,5.50
2019-05-22T23:13:12.123Z,5.87
2019-05-22T23:17:58.173Z,6.50
2019-05-22T23:22:43.547Z,7.10
2019-05-22T23:27:31.761Z,8.43
2019-05-22T23:32:21.185Z,8.47
2019-05-22T23:37:10.560Z,9.20
2019-05-22T23:41:59.827Z,5.40
2019-05-22T23:46:46.067Z,6.80
2019-05-22T23:51:32.330Z,5.67
2019-05-22T23:56:18.416Z,6.80
